Time,TemperatureF,DewpointF,PressureIn,WindDirection,WindDirectionDegrees,WindSpeedMPH,WindSpeedGustMPH,Humidity,HourlyPrecipIn,Conditions,Clouds,dailyrainin,SoftwareType,DateUTC
2013-11-22 00:00:00,68.8,68.2,30.19,SSW,210,1.0,1.0,98,0.00,,,0.01,Wunderground v.1.15,2013-11-22 05:00:00,
2013-11-22 00:30:00,69.0,68.4,30.19,SSW,205,0.0,0.0,98,0.00,,,0.00,Wunderground v.1.15,2013-11-22 05:30:00,
2013-11-22 01:00:00,69.3,68.7,30.18,SSW,193,0.0,2.0,98,0.00,,,0.00,Wunderground v.1.15,2013-11-22 06:00:00,
2013-11-22 01:30:00,69.3,68.7,30.18,SSW,198,0.0,2.0,98,0.00,,,0.00,Wunderground v.1.15,2013-11-22 06:30:00,
2013-11-22 02:00:00,69.3,68.7,30.18,SSW,198,0.0,2.0,98,0.00,,,0.00,Wunderground v.1.15,2013-11-22 07:00:00,
2013-11-22 02:30:00,69.4,68.8,30.18,SSW,210,0.0,2.0,98,0.00,,,0.00,Wunderground v.1.15,2013-11-22 07:30:00,
2013-11-22 03:00:00,69.3,68.7,30.17,SSW,201,0.0,2.0,98,0.00,,,0.00,Wunderground v.1.15,2013-11-22 08:00:00,
2013-11-22 03:30:00,69.3,68.7,30.17,SSW,209,0.0,2.0,98,0.00,,,0.00,Wunderground v.1.15,2013-11-22 08:30:00,
2013-11-22 04:00:00,69.1,68.5,30.17,SSW,208,0.0,2.0,98,0.00,,,0.00,Wunderground v.1.15,2013-11-22 09:00:00,
2013-11-22 04:30:00,69.1,68.5,30.16,WSW,243,1.0,2.0,98,0.00,,,0.00,Wunderground v.1.15,2013-11-22 09:30:00,
2013-11-22 05:00:00,69.2,68.6,30.17,SSW,206,1.0,1.0,98,0.00,,,0.00,Wunderground v.1.15,2013-11-22 10:00:00,
2013-11-22 05:30:00,69.5,68.9,30.17,SW,220,1.0,2.0,98,0.00,,,0.00,Wunderground v.1.15,2013-11-22 10:30:00,
2013-11-22 06:00:00,69.9,69.0,30.17,SSW,202,2.0,2.0,97,0.00,,,0.00,Wunderground v.1.15,2013-11-22 11:00:00,
2013-11-22 06:30:00,69.9,68.7,30.18,SSW,205,1.0,1.0,96,0.00,,,0.00,Wunderground v.1.15,2013-11-22 11:30:00,
2013-11-22 07:00:00,69.7,68.8,30.18,SSW,213,1.0,2.0,97,0.00,,,0.00,Wunderground v.1.15,2013-11-22 12:00:00,
2013-11-22 07:30:00,69.9,69.0,30.19,SSW,201,0.0,2.0,97,0.00,,,0.00,Wunderground v.1.15,2013-11-22 12:30:00,
2013-11-22 08:00:00,70.5,69.6,30.19,SSW,192,0.0,2.0,97,0.00,,,0.00,Wunderground v.1.15,2013-11-22 13:00:00,
2013-11-22 08:30:00,71.7,70.2,30.20,SW,235,1.0,3.0,95,0.00,,,0.01,Wunderground v.1.15,2013-11-22 13:30:00,
2013-11-22 09:00:00,73.2,71.1,30.21,SW,233,1.0,3.0,93,0.00,,,0.01,Wunderground v.1.15,2013-11-22 14:00:00,
2013-11-22 09:30:00,74.5,71.0,30.21,SW,217,3.0,3.0,89,0.00,,,0.01,Wunderground v.1.15,2013-11-22 14:30:00,
2013-11-22 10:00:00,75.3,71.5,30.21,WSW,237,3.0,3.0,88,0.00,,,0.01,Wunderground v.1.15,2013-11-22 15:00:00,
2013-11-22 10:30:00,77.0,71.4,30.21,WSW,257,5.0,7.0,83,0.00,,,0.01,Wunderground v.1.15,2013-11-22 15:30:00,
2013-11-22 11:00:00,79.3,72.2,30.20,West,259,4.0,9.0,79,0.00,,,0.01,Wunderground v.1.15,2013-11-22 16:00:00,
2013-11-22 11:30:00,79.8,71.6,30.19,SE,132,5.0,5.0,76,0.00,,,0.01,Wunderground v.1.15,2013-11-22 16:30:00,
2013-11-22 12:00:00,78.8,70.6,30.18,SW,226,4.0,4.0,76,0.00,,,0.01,Wunderground v.1.15,2013-11-22 17:00:00,
2013-11-22 12:30:00,76.7,70.8,30.17,SW,226,5.0,5.0,82,0.00,,,0.01,Wunderground v.1.15,2013-11-22 17:30:00,
2013-11-22 13:00:00,77.4,70.4,30.15,West,280,5.0,5.0,79,0.00,,,0.01,Wunderground v.1.15,2013-11-22 18:00:00,
2013-11-22 13:30:00,77.6,70.2,30.14,WSW,257,4.0,5.0,78,0.00,,,0.01,Wunderground v.1.15,2013-11-22 18:30:00,
2013-11-22 14:00:00,78.5,70.3,30.13,WSW,242,5.0,5.0,76,0.00,,,0.01,Wunderground v.1.15,2013-11-22 19:00:00,
2013-11-22 14:30:00,78.5,70.7,30.13,WSW,255,4.0,4.0,77,0.00,,,0.01,Wunderground v.1.15,2013-11-22 19:30:00,
2013-11-22 15:00:00,78.6,70.0,30.12,WSW,248,3.0,5.0,75,0.00,,,0.01,Wunderground v.1.15,2013-11-22 20:00:00,
2013-11-22 15:30:00,80.0,69.3,30.11,SSW,203,6.0,6.0,70,0.00,,,0.02,Wunderground v.1.15,2013-11-22 20:30:00,
2013-11-22 16:00:00,78.9,69.1,30.11,WSW,238,6.0,6.0,72,0.00,,,0.02,Wunderground v.1.15,2013-11-22 21:00:00,
2013-11-22 16:30:00,77.9,68.5,30.12,SW,226,3.0,3.0,73,0.00,,,0.02,Wunderground v.1.15,2013-11-22 21:30:00,
2013-11-22 17:00:00,75.8,67.7,30.12,SW,235,3.0,4.0,76,0.00,,,0.02,Wunderground v.1.15,2013-11-22 22:00:00,
2013-11-22 17:30:00,74.1,67.5,30.13,SW,225,3.0,3.0,80,0.00,,,0.02,Wunderground v.1.15,2013-11-22 22:30:00,
2013-11-22 18:00:00,73.4,66.5,30.13,WSW,238,3.0,3.0,79,0.00,,,0.02,Wunderground v.1.15,2013-11-22 23:00:00,
2013-11-22 18:30:00,72.3,65.8,30.14,SSW,211,2.0,2.0,80,0.00,,,0.02,Wunderground v.1.15,2013-11-22 23:30:00,
2013-11-22 19:00:00,71.3,65.9,30.15,SW,217,1.0,2.0,83,0.00,,,0.02,Wunderground v.1.15,2013-11-23 00:00:00,
2013-11-22 19:30:00,70.3,65.2,30.15,SW,234,1.0,3.0,84,0.00,,,0.02,Wunderground v.1.15,2013-11-23 00:30:00,
2013-11-22 20:00:00,70.0,65.3,30.15,SW,234,1.0,3.0,85,0.00,,,0.02,Wunderground v.1.15,2013-11-23 01:00:00,
2013-11-22 20:30:00,69.0,65.0,30.15,SSW,211,0.0,5.0,87,0.00,,,0.02,Wunderground v.1.15,2013-11-23 01:30:00,
2013-11-22 21:00:00,68.4,65.0,30.16,SW,214,0.0,5.0,89,0.00,,,0.02,Wunderground v.1.15,2013-11-23 02:00:00,
2013-11-22 21:30:00,67.8,64.8,30.15,SSW,213,0.0,5.0,90,0.00,,,0.02,Wunderground v.1.15,2013-11-23 02:30:00,
2013-11-22 22:00:00,67.0,64.3,30.16,SSW,212,0.0,5.0,91,0.00,,,0.02,Wunderground v.1.15,2013-11-23 03:00:00,
2013-11-22 22:30:00,66.4,64.0,30.15,SSW,212,0.0,5.0,92,0.00,,,0.02,Wunderground v.1.15,2013-11-23 03:30:00,
2013-11-22 23:00:00,66.3,64.2,30.15,SSW,212,0.0,5.0,93,0.00,,,0.02,Wunderground v.1.15,2013-11-23 04:00:00,
2013-11-22 23:30:00,65.8,64.0,30.14,SSW,212,0.0,5.0,94,0.00,,,0.02,Wunderground v.1.15,2013-11-23 04:30:00,